Time;durP1;ratioP1;P1;durP2;ratioP2;P2;SDS_P1;SDS_P2;PMS_P1;PMS_P2;Temp;Humidity;BMP_temperature;BMP_pressure;BME280_temperature;BME280_humidity;BME280_pressure;Samples;Min_cycle;Max_cycle;Signal;HPM_P1;HPM_P2
2024/01/28 00:01:59;;;;;;;8.10;3.38;;;4.80;99.90;;;;;;4158944;28;20044;-74
2024/01/28 00:04:00;;;;;;;9.25;3.35;;;4.80;99.90;;;;;;4159654;28;20167;-73
2024/01/28 00:06:00;;;;;;;10.77;4.25;;;4.80;99.90;;;;;;4159507;28;20049;-73
2024/01/28 00:08:01;;;;;;;9.07;3.97;;;4.80;99.90;;;;;;4159860;28;20399;-73
2024/01/28 00:10:02;;;;;;;9.02;4.07;;;4.80;99.90;;;;;;4142387;28;20038;-73
2024/01/28 00:12:03;;;;;;;10.52;3.75;;;4.80;99.90;;;;;;4159400;28;20506;-74
2024/01/28 00:14:03;;;;;;;10.80;3.97;;;4.80;99.90;;;;;;4142362;28;20034;-73
2024/01/28 00:16:04;;;;;;;10.60;3.75;;;4.80;99.90;;;;;;4158773;28;20030;-75
2024/01/28 00:18:05;;;;;;;10.98;4.13;;;4.80;99.90;;;;;;4141847;28;20045;-73
2024/01/28 00:20:06;;;;;;;14.38;4.28;;;4.70;99.90;;;;;;4155298;28;20041;-74
2024/01/28 00:22:07;;;;;;;8.57;3.92;;;4.80;99.90;;;;;;4140845;28;20045;-74
2024/01/28 00:24:07;;;;;;;15.98;4.65;;;4.80;99.90;;;;;;4158187;28;20038;-74
2024/01/28 00:26:08;;;;;;;14.85;4.07;;;4.70;99.90;;;;;;4158230;28;20083;-73
2024/01/28 00:28:08;;;;;;;12.10;4.32;;;4.70;99.90;;;;;;4158410;28;20112;-74
2024/01/28 00:30:10;;;;;;;11.93;4.95;;;4.80;99.90;;;;;;4158091;28;20045;-74
2024/01/28 00:32:10;;;;;;;15.90;4.85;;;4.70;99.90;;;;;;4154261;28;20507;-77
2024/01/28 00:34:11;;;;;;;13.27;4.50;;;4.70;99.90;;;;;;4141049;28;20116;-77
2024/01/28 00:36:15;;;;;;;10.57;4.70;;;4.70;99.90;;;;;;4158761;28;20046;-75
2024/01/28 00:38:16;;;;;;;15.88;5.15;;;4.70;99.90;;;;;;4159316;28;20060;-77
2024/01/28 00:40:16;;;;;;;11.07;4.50;;;4.70;99.90;;;;;;4158553;28;20038;-77
2024/01/28 00:42:17;;;;;;;12.38;4.32;;;4.70;99.90;;;;;;4159699;28;20438;-77
2024/01/28 00:44:19;;;;;;;8.20;4.07;;;4.70;99.90;;;;;;4159212;28;20427;-76
2024/01/28 00:46:20;;;;;;;11.20;4.13;;;4.70;99.90;;;;;;4154277;28;20029;-76
2024/01/28 00:48:20;;;;;;;16.65;4.70;;;4.70;99.90;;;;;;4159436;28;20296;-76
2024/01/28 00:50:21;;;;;;;11.85;4.10;;;4.70;99.90;;;;;;4141248;28;20030;-76
2024/01/28 00:52:22;;;;;;;10.70;3.90;;;4.70;99.90;;;;;;4158981;28;20128;-76
2024/01/28 00:54:26;;;;;;;10.98;3.78;;;4.70;99.90;;;;;;4159184;28;20057;-76
2024/01/28 00:56:27;;;;;;;8.85;3.53;;;4.70;99.90;;;;;;4158685;28;20045;-77
2024/01/28 00:58:29;;;;;;;15.43;4.72;;;4.70;99.90;;;;;;4159305;28;20030;-76
2024/01/28 01:00:31;;;;;;;8.32;3.22;;;4.70;99.90;;;;;;4158528;28;20368;-77
2024/01/28 01:02:31;;;;;;;10.88;3.85;;;4.70;99.90;;;;;;4158426;28;20032;-78
2024/01/28 01:04:32;;;;;;;10.77;3.63;;;4.70;99.90;;;;;;4158428;28;20026;-77
2024/01/28 01:06:32;;;;;;;8.27;3.42;;;4.70;99.90;;;;;;4158385;28;20134;-78
2024/01/28 01:08:33;;;;;;;9.25;3.55;;;4.70;99.90;;;;;;4159526;28;20120;-78
2024/01/28 01:10:33;;;;;;;11.60;3.60;;;4.70;99.90;;;;;;4158756;28;20080;-78
2024/01/28 01:12:34;;;;;;;9.82;3.15;;;4.60;99.90;;;;;;4155883;28;20025;-77
2024/01/28 01:14:37;;;;;;;14.35;3.90;;;4.60;99.90;;;;;;4141708;28;20047;-78
2024/01/28 01:16:38;;;;;;;9.30;3.47;;;4.60;99.90;;;;;;4157568;28;20498;-78
2024/01/28 01:18:38;;;;;;;8.70;3.00;;;4.50;99.90;;;;;;4159612;28;20032;-79
2024/01/28 01:20:39;;;;;;;13.85;3.97;;;4.50;99.90;;;;;;4158464;28;20026;-79
2024/01/28 01:22:39;;;;;;;9.07;3.40;;;4.50;99.90;;;;;;4141723;28;20023;-78
2024/01/28 01:24:40;;;;;;;6.80;3.25;;;4.50;99.90;;;;;;4159172;28;20041;-78
2024/01/28 01:26:40;;;;;;;8.68;3.30;;;4.50;99.90;;;;;;4140994;28;20030;-78
2024/01/28 01:28:41;;;;;;;8.23;3.30;;;4.60;99.90;;;;;;4159192;28;20116;-78
2024/01/28 01:30:42;;;;;;;9.85;3.63;;;4.50;99.90;;;;;;4158374;28;20045;-79
2024/01/28 01:32:42;;;;;;;8.48;3.38;;;4.60;99.90;;;;;;4159227;28;20398;-77
2024/01/28 01:34:43;;;;;;;9.27;3.08;;;4.60;99.90;;;;;;4141808;28;20556;-78
2024/01/28 01:36:44;;;;;;;10.80;3.50;;;4.60;99.90;;;;;;4158677;28;20045;-79
2024/01/28 01:38:45;;;;;;;9.48;3.22;;;4.60;99.90;;;;;;4140944;28;20046;-79
2024/01/28 01:40:46;;;;;;;11.25;3.75;;;4.60;99.90;;;;;;4158651;28;20033;-79
2024/01/28 01:42:47;;;;;;;11.93;4.00;;;4.60;99.90;;;;;;4161176;28;20022;-73
2024/01/28 01:44:48;;;;;;;8.95;3.15;;;4.50;99.90;;;;;;4144499;28;20033;-72
2024/01/28 01:46:49;;;;;;;8.02;3.38;;;4.50;99.90;;;;;;4161475;28;20486;-72
2024/01/28 01:48:50;;;;;;;8.10;3.40;;;4.50;99.90;;;;;;4162009;28;20563;-72
2024/01/28 01:50:51;;;;;;;9.48;3.30;;;4.50;99.90;;;;;;4159872;28;20033;-73
2024/01/28 01:52:52;;;;;;;8.98;3.38;;;4.50;99.90;;;;;;4158741;28;20052;-72
2024/01/28 01:54:54;;;;;;;10.37;3.70;;;4.40;99.90;;;;;;4144338;28;20030;-72
2024/01/28 01:56:55;;;;;;;8.18;3.25;;;4.40;99.90;;;;;;4160656;28;20037;-73
2024/01/28 01:58:57;;;;;;;7.97;3.28;;;4.40;99.90;;;;;;4161286;28;20038;-72
2024/01/28 02:00:59;;;;;;;9.10;3.93;;;4.40;99.90;;;;;;4160890;28;20088;-74
2024/01/28 02:03:01;;;;;;;9.13;3.25;;;4.40;99.90;;;;;;4159489;28;20265;-72
2024/01/28 02:05:02;;;;;;;6.72;3.10;;;4.40;99.90;;;;;;4161539;28;20033;-72
2024/01/28 02:07:03;;;;;;;10.00;2.88;;;4.40;99.90;;;;;;4143430;28;20561;-72
2024/01/28 02:09:05;;;;;;;8.68;2.90;;;4.40;99.90;;;;;;4144352;28;20042;-72
2024/01/28 02:11:06;;;;;;;;;;;4.40;99.90;;;;;;4161280;28;20124;-72
2024/01/28 02:13:07;;;;;;;7.40;3.03;;;4.40;99.90;;;;;;4161624;28;19916;-77
2024/01/28 02:15:09;;;;;;;8.32;3.13;;;4.40;99.90;;;;;;4160695;28;20030;-76
2024/01/28 02:17:10;;;;;;;9.18;2.90;;;4.40;99.90;;;;;;4161337;28;20491;-76
2024/01/28 02:19:10;;;;;;;9.40;3.15;;;4.40;99.90;;;;;;4161326;28;20049;-76
2024/01/28 02:21:12;;;;;;;10.80;3.45;;;4.40;99.90;;;;;;4160537;28;20128;-76
2024/01/28 02:23:17;;;;;;;10.35;3.05;;;4.30;99.90;;;;;;4161704;28;20033;-77
2024/01/28 02:25:18;;;;;;;4.95;2.45;;;4.30;99.90;;;;;;4158519;28;20033;-77
2024/01/28 02:27:19;;;;;;;15.98;3.75;;;4.30;99.90;;;;;;4161826;28;20057;-77
2024/01/28 02:29:19;;;;;;;8.15;3.22;;;4.30;99.90;;;;;;4160318;28;20597;-76
2024/01/28 02:31:20;;;;;;;7.63;3.25;;;4.30;99.90;;;;;;4160436;28;20030;-76
2024/01/28 02:33:20;;;;;;;10.20;3.22;;;4.20;99.90;;;;;;4143368;28;20475;-77
2024/01/28 02:35:21;;;;;;;9.18;3.05;;;4.20;99.90;;;;;;4139260;28;20099;-77
2024/01/28 02:37:22;;;;;;;6.82;3.17;;;4.20;99.90;;;;;;4143681;28;20029;-76
2024/01/28 02:39:23;;;;;;;11.30;3.42;;;4.20;99.90;;;;;;4160932;28;20490;-76
2024/01/28 02:41:23;;;;;;;6.78;2.92;;;4.20;99.90;;;;;;4160004;28;20048;-76
2024/01/28 02:43:24;;;;;;;12.18;3.50;;;4.20;99.90;;;;;;4159356;28;20511;-76
2024/01/28 02:45:24;;;;;;;8.20;3.25;;;4.20;99.90;;;;;;4157990;28;20126;-75
2024/01/28 02:47:25;;;;;;;7.28;2.90;;;4.20;99.90;;;;;;4160776;28;20112;-76
2024/01/28 02:49:26;;;;;;;10.48;3.38;;;4.20;99.90;;;;;;4160870;28;20037;-76
2024/01/28 02:51:26;;;;;;;9.95;2.95;;;4.10;99.90;;;;;;4159222;28;20304;-77
2024/01/28 02:53:27;;;;;;;11.90;3.40;;;4.10;99.90;;;;;;4158528;28;20518;-76
2024/01/28 02:55:27;;;;;;;12.25;3.20;;;4.10;99.90;;;;;;4159849;28;20112;-76
2024/01/28 02:57:28;;;;;;;11.02;3.25;;;4.10;99.90;;;;;;4160718;28;20044;-77
2024/01/28 02:59:29;;;;;;;10.77;2.70;;;4.10;99.90;;;;;;4160551;28;20069;-76
2024/01/28 03:01:29;;;;;;;9.35;2.92;;;4.10;99.90;;;;;;4157546;28;20034;-76
2024/01/28 03:03:30;;;;;;;7.75;2.92;;;4.10;99.90;;;;;;4159936;28;20037;-77
2024/01/28 03:05:31;;;;;;;7.00;2.65;;;4.10;99.90;;;;;;4159973;28;20057;-77
2024/01/28 03:07:31;;;;;;;7.97;2.60;;;4.10;99.90;;;;;;4160463;28;20032;-77
2024/01/28 03:09:32;;;;;;;10.30;2.78;;;4.10;99.90;;;;;;4160795;28;20033;-76
2024/01/28 03:11:33;;;;;;;11.98;3.08;;;4.10;99.90;;;;;;4159795;28;20029;-77
2024/01/28 03:13:33;;;;;;;13.25;3.50;;;4.10;99.90;;;;;;4159053;28;20482;-72
2024/01/28 03:15:34;;;;;;;8.77;2.80;;;4.10;99.90;;;;;;4158508;28;20041;-72
2024/01/28 03:17:34;;;;;;;5.90;2.58;;;4.10;99.90;;;;;;4160535;28;20037;-73
2024/01/28 03:19:36;;;;;;;5.85;2.50;;;4.10;99.90;;;;;;4143123;28;20116;-72
2024/01/28 03:21:37;;;;;;;11.63;2.60;;;4.20;99.90;;;;;;4139970;28;20026;-73
2024/01/28 03:23:37;;;;;;;9.38;3.10;;;4.20;99.90;;;;;;4143367;28;20436;-73
2024/01/28 03:25:38;;;;;;;7.07;2.72;;;4.20;99.90;;;;;;4159571;28;20037;-72
2024/01/28 03:27:39;;;;;;;9.48;3.00;;;4.20;99.90;;;;;;4140408;28;20405;-72
2024/01/28 03:29:39;;;;;;;9.75;2.50;;;4.20;99.90;;;;;;4160280;28;20217;-73
2024/01/28 03:31:40;;;;;;;8.90;2.47;;;4.20;99.90;;;;;;4152992;28;20052;-72
2024/01/28 03:33:41;;;;;;;8.70;2.97;;;4.20;99.90;;;;;;4159432;28;20037;-74
2024/01/28 03:35:41;;;;;;;7.28;2.20;;;4.20;99.90;;;;;;4158649;28;20104;-73
2024/01/28 03:37:42;;;;;;;4.95;2.13;;;4.30;99.90;;;;;;4141677;28;20040;-73
2024/01/28 03:39:43;;;;;;;6.35;2.25;;;4.30;99.90;;;;;;4125634;28;20122;-72
2024/01/28 03:41:43;;;;;;;9.15;2.78;;;4.20;99.90;;;;;;4157917;28;20113;-72
2024/01/28 03:43:46;;;;;;;9.02;2.55;;;4.30;99.90;;;;;;4159275;28;20026;-72
2024/01/28 03:45:46;;;;;;;;;;;4.30;99.90;;;;;;4157455;28;20091;-73
2024/01/28 03:47:47;;;;;;;9.98;2.20;;;4.30;99.90;;;;;;4159144;28;19913;-74
2024/01/28 03:49:47;;;;;;;6.07;2.55;;;4.30;99.90;;;;;;4124226;28;20109;-73
2024/01/28 03:51:48;;;;;;;9.00;3.00;;;4.30;99.90;;;;;;4139398;28;20133;-72
2024/01/28 03:53:49;;;;;;;11.63;3.15;;;4.30;99.90;;;;;;4158470;28;20037;-73
2024/01/28 03:55:49;;;;;;;9.57;3.20;;;4.30;99.90;;;;;;4154911;28;20034;-74
2024/01/28 03:57:50;;;;;;;7.88;2.38;;;4.30;99.90;;;;;;4139175;28;20030;-73
2024/01/28 03:59:51;;;;;;;6.25;2.50;;;4.20;99.90;;;;;;4140929;28;20058;-72
2024/01/28 04:01:52;;;;;;;6.13;2.65;;;4.30;99.90;;;;;;4156754;28;20026;-73
2024/01/28 04:03:57;;;;;;;8.82;2.40;;;4.20;99.90;;;;;;4157232;28;20450;-77
2024/01/28 04:05:58;;;;;;;10.07;3.10;;;4.20;99.90;;;;;;4147004;28;20159;-77
2024/01/28 04:07:58;;;;;;;11.40;2.67;;;4.20;99.90;;;;;;4159799;28;20041;-78
2024/01/28 04:09:59;;;;;;;10.27;2.80;;;4.20;99.90;;;;;;4159397;28;20049;-77
2024/01/28 04:12:00;;;;;;;5.90;2.20;;;4.20;99.90;;;;;;4154791;28;20047;-78
2024/01/28 04:14:00;;;;;;;5.85;2.40;;;4.30;99.90;;;;;;4160238;28;20053;-78
2024/01/28 04:16:01;;;;;;;4.70;2.60;;;4.20;99.90;;;;;;4159118;28;20636;-78
2024/01/28 04:18:01;;;;;;;6.40;2.10;;;4.30;99.90;;;;;;4159591;28;20087;-78
2024/01/28 04:20:05;;;;;;;6.75;2.17;;;4.30;99.90;;;;;;4159558;28;20034;-77
2024/01/28 04:22:10;;;;;;;8.05;2.17;;;4.30;99.90;;;;;;4159332;28;20033;-78
2024/01/28 04:24:10;;;;;;;5.55;2.08;;;4.30;99.90;;;;;;4159502;28;20056;-73
2024/01/28 04:26:11;;;;;;;5.45;1.92;;;4.20;99.90;;;;;;4158813;28;20037;-72
2024/01/28 04:28:11;;;;;;;6.28;2.22;;;4.30;99.90;;;;;;4142425;28;20064;-73
2024/01/28 04:30:12;;;;;;;5.75;2.33;;;4.20;99.90;;;;;;4159109;28;20499;-74
2024/01/28 04:32:14;;;;;;;6.45;2.13;;;4.30;99.90;;;;;;4141707;28;20037;-73
2024/01/28 04:34:15;;;;;;;7.38;2.30;;;4.20;99.90;;;;;;4158838;28;20395;-74
2024/01/28 04:36:15;;;;;;;6.57;2.20;;;4.20;99.90;;;;;;4159044;28;20245;-73
2024/01/28 04:38:16;;;;;;;4.47;1.70;;;4.20;99.90;;;;;;4142129;28;20213;-73
2024/01/28 04:40:17;;;;;;;8.63;2.35;;;4.20;99.90;;;;;;4157918;28;20042;-73
2024/01/28 04:42:22;;;;;;;4.90;1.95;;;4.20;99.90;;;;;;4123065;28;20397;-73
2024/01/28 04:44:22;;;;;;;7.18;1.90;;;4.20;99.90;;;;;;4158148;28;20030;-73
2024/01/28 04:46:23;;;;;;;4.45;1.65;;;4.20;99.90;;;;;;4157221;28;20398;-73
2024/01/28 04:48:24;;;;;;;3.28;1.70;;;4.10;99.90;;;;;;4159526;28;20037;-73
2024/01/28 04:50:25;;;;;;;5.50;2.03;;;4.10;99.90;;;;;;4149195;28;20398;-73
2024/01/28 04:52:26;;;;;;;4.32;1.80;;;4.10;99.90;;;;;;4159315;28;20045;-74
2024/01/28 04:54:26;;;;;;;5.15;1.90;;;4.00;99.90;;;;;;4158947;28;20053;-73
2024/01/28 04:56:27;;;;;;;5.45;2.10;;;4.00;99.90;;;;;;4158603;28;20029;-73
2024/01/28 04:58:28;;;;;;;5.93;1.92;;;4.00;99.90;;;;;;4159671;28;20038;-73
2024/01/28 05:00:28;;;;;;;5.53;1.63;;;4.00;99.90;;;;;;4158246;28;20041;-73
2024/01/28 05:02:29;;;;;;;5.70;2.10;;;3.90;99.90;;;;;;4140972;28;20426;-73
2024/01/28 05:04:30;;;;;;;7.53;2.30;;;4.00;99.90;;;;;;4140710;28;20041;-73
2024/01/28 05:06:36;;;;;;;6.85;2.25;;;4.00;99.90;;;;;;4157080;28;20041;-74
2024/01/28 05:08:37;;;;;;;4.20;1.77;;;4.00;99.90;;;;;;4140767;28;20030;-72
2024/01/28 05:10:38;;;;;;;3.92;1.92;;;4.00;99.90;;;;;;4156951;28;20041;-73
2024/01/28 05:12:39;;;;;;;8.70;2.42;;;3.90;99.90;;;;;;4139243;28;20112;-73
2024/01/28 05:14:41;;;;;;;5.40;1.70;;;3.90;99.90;;;;;;4157633;28;20438;-72
2024/01/28 05:16:47;;;;;;;6.60;2.50;;;3.90;99.90;;;;;;4155930;28;20034;-73
2024/01/28 05:18:47;;;;;;;9.10;2.30;;;3.90;99.90;;;;;;4160514;28;20037;-72
2024/01/28 05:20:48;;;;;;;5.22;2.05;;;3.80;99.90;;;;;;4142933;28;20251;-72
2024/01/28 05:22:48;;;;;;;6.65;2.38;;;3.80;99.90;;;;;;4143438;28;20030;-72
2024/01/28 05:24:50;;;;;;;3.53;2.17;;;3.80;99.90;;;;;;4161113;28;20487;-73
2024/01/28 05:26:50;;;;;;;5.75;2.38;;;3.80;99.90;;;;;;4160733;28;20026;-73
2024/01/28 05:28:51;;;;;;;5.53;2.33;;;3.80;99.90;;;;;;4161528;28;20039;-73
2024/01/28 05:30:52;;;;;;;7.88;2.47;;;3.80;99.90;;;;;;4160526;28;20021;-72
2024/01/28 05:32:53;;;;;;;6.50;2.25;;;3.70;99.90;;;;;;4161309;28;20487;-74
2024/01/28 05:34:56;;;;;;;9.05;2.85;;;3.80;99.90;;;;;;4162066;28;20022;-77
2024/01/28 05:36:57;;;;;;;6.40;2.42;;;3.80;99.90;;;;;;4156989;28;20037;-75
2024/01/28 05:38:57;;;;;;;8.70;2.67;;;3.80;99.90;;;;;;4162120;28;20406;-77
2024/01/28 05:40:58;;;;;;;7.35;2.42;;;3.80;99.90;;;;;;4161819;28;20368;-77
2024/01/28 05:42:59;;;;;;;7.13;2.38;;;3.80;99.90;;;;;;4161876;28;20115;-77
2024/01/28 05:44:59;;;;;;;7.88;2.45;;;3.80;99.90;;;;;;4162185;28;20038;-74
2024/01/28 05:47:00;;;;;;;7.53;2.33;;;3.80;99.90;;;;;;4161065;28;20034;-73
2024/01/28 05:49:01;;;;;;;5.30;2.13;;;3.80;99.90;;;;;;4162078;28;20040;-73
2024/01/28 05:51:02;;;;;;;8.70;2.28;;;3.80;99.90;;;;;;4160181;28;20499;-74
2024/01/28 05:53:02;;;;;;;6.47;2.40;;;3.80;99.90;;;;;;4161476;28;20514;-73
2024/01/28 05:55:03;;;;;;;5.20;1.80;;;3.90;99.90;;;;;;4161956;28;20109;-74
2024/01/28 05:57:04;;;;;;;6.38;2.22;;;3.80;99.90;;;;;;4160237;28;20034;-74
2024/01/28 05:59:05;;;;;;;7.18;2.20;;;3.80;99.90;;;;;;4161589;28;20486;-72
2024/01/28 06:01:06;;;;;;;5.65;2.17;;;3.80;99.90;;;;;;4160046;28;20034;-73
2024/01/28 06:03:07;;;;;;;6.07;1.88;;;3.80;99.90;;;;;;4144342;28;20109;-73
2024/01/28 06:05:09;;;;;;;7.18;2.33;;;3.80;99.90;;;;;;4161255;28;20029;-73
2024/01/28 06:07:09;;;;;;;7.13;2.42;;;3.80;99.90;;;;;;4143069;28;20034;-75
2024/01/28 06:09:10;;;;;;;6.80;2.40;;;3.80;99.90;;;;;;4161602;28;20128;-74
2024/01/28 06:11:11;;;;;;;7.75;2.33;;;3.80;99.90;;;;;;4158465;28;20107;-73
2024/01/28 06:13:11;;;;;;;6.85;2.22;;;3.80;99.90;;;;;;4161195;28;20041;-72
2024/01/28 06:15:12;;;;;;;6.00;2.10;;;3.80;99.90;;;;;;4160924;28;20133;-74
2024/01/28 06:17:14;;;;;;;4.97;1.98;;;3.80;99.90;;;;;;4161709;28;20412;-74
2024/01/28 06:19:15;;;;;;;5.80;1.70;;;3.80;99.90;;;;;;4161445;28;20046;-73
2024/01/28 06:21:15;;;;;;;6.88;1.70;;;3.80;99.90;;;;;;4156144;28;20033;-73
2024/01/28 06:23:16;;;;;;;7.32;2.40;;;3.80;99.90;;;;;;4156789;28;20045;-72
2024/01/28 06:25:16;;;;;;;8.82;2.13;;;3.90;99.90;;;;;;4160690;28;20091;-73
2024/01/28 06:27:17;;;;;;;4.97;2.20;;;3.80;99.90;;;;;;4161267;28;20037;-73
2024/01/28 06:29:18;;;;;;;4.80;2.10;;;3.80;99.90;;;;;;4157313;28;20485;-73
2024/01/28 06:31:20;;;;;;;5.72;1.90;;;3.80;99.90;;;;;;4160442;28;20550;-73
2024/01/28 06:33:21;;;;;;;;;;;3.80;99.90;;;;;;4160409;28;20499;-74
2024/01/28 06:35:21;;;;;;;5.68;1.40;;;3.80;99.90;;;;;;4159973;28;19913;-73
2024/01/28 06:37:22;;;;;;;4.68;1.85;;;3.80;99.90;;;;;;4159112;28;20029;-73
2024/01/28 06:39:22;;;;;;;4.25;2.00;;;3.80;99.90;;;;;;4153616;28;20083;-72
2024/01/28 06:41:23;;;;;;;4.93;2.50;;;3.80;99.90;;;;;;4158916;28;20041;-73
2024/01/28 06:43:25;;;;;;;7.45;2.20;;;3.80;99.90;;;;;;4155279;28;20624;-73
2024/01/28 06:45:26;;;;;;;8.80;2.42;;;3.80;99.90;;;;;;4159524;28;20464;-72
2024/01/28 06:47:26;;;;;;;7.38;2.20;;;3.80;99.90;;;;;;4161120;28;20056;-73
2024/01/28 06:49:27;;;;;;;5.32;1.90;;;3.80;99.90;;;;;;4157546;28;20030;-72
2024/01/28 06:51:28;;;;;;;5.68;2.35;;;3.80;99.90;;;;;;4158807;28;20040;-72
2024/01/28 06:53:28;;;;;;;6.78;2.28;;;3.80;99.90;;;;;;4160373;28;20449;-73
2024/01/28 06:55:29;;;;;;;6.10;2.45;;;3.70;99.90;;;;;;4143872;28;20518;-77
2024/01/28 06:57:30;;;;;;;6.53;1.88;;;3.80;99.90;;;;;;4140515;28;20614;-78
2024/01/28 06:59:31;;;;;;;6.85;2.28;;;3.80;99.90;;;;;;4160814;28;20195;-78
2024/01/28 07:01:32;;;;;;;9.95;2.65;;;3.80;99.90;;;;;;4157969;28;20099;-75
2024/01/28 07:03:32;;;;;;;6.70;2.25;;;3.80;99.90;;;;;;4158749;28;20057;-78
2024/01/28 07:05:33;;;;;;;5.72;1.80;;;3.80;99.90;;;;;;4158802;28;20567;-78
2024/01/28 07:07:34;;;;;;;8.05;2.30;;;3.80;99.90;;;;;;4158830;28;20499;-78
2024/01/28 07:09:35;;;;;;;11.10;2.70;;;3.80;99.90;;;;;;4159865;28;20037;-78
2024/01/28 07:11:35;;;;;;;9.10;2.72;;;3.80;99.90;;;;;;4157015;28;20126;-75
2024/01/28 07:13:36;;;;;;;5.78;2.60;;;3.80;99.90;;;;;;4142351;28;20030;-79
2024/01/28 07:15:37;;;;;;;6.05;2.30;;;3.80;99.90;;;;;;4158929;28;20418;-77
2024/01/28 07:17:37;;;;;;;11.05;3.00;;;3.80;99.90;;;;;;4159520;28;20088;-79
2024/01/28 07:19:40;;;;;;;6.88;2.20;;;3.80;99.90;;;;;;4158319;28;20041;-78
2024/01/28 07:21:41;;;;;;;6.25;2.35;;;3.80;99.90;;;;;;4158581;28;20044;-78
2024/01/28 07:23:41;;;;;;;7.50;2.35;;;3.80;99.90;;;;;;4159108;28;20495;-77
2024/01/28 07:25:42;;;;;;;9.13;2.72;;;3.80;99.90;;;;;;4158534;28;20036;-77
2024/01/28 07:27:42;;;;;;;6.50;2.30;;;3.90;99.90;;;;;;4141869;28;20058;-78
2024/01/28 07:29:43;;;;;;;8.05;2.28;;;3.90;99.90;;;;;;4159842;28;20037;-77
2024/01/28 07:31:44;;;;;;;6.13;2.25;;;3.90;99.90;;;;;;4157785;28;20029;-78
2024/01/28 07:33:44;;;;;;;5.75;2.20;;;3.90;99.90;;;;;;4156877;28;20094;-78
2024/01/28 07:35:45;;;;;;;9.68;2.58;;;3.90;99.90;;;;;;4156048;28;20029;-78
2024/01/28 07:37:45;;;;;;;7.68;2.40;;;3.90;99.90;;;;;;4159197;28;20478;-78
2024/01/28 07:39:46;;;;;;;7.28;2.35;;;3.90;99.90;;;;;;4158336;28;20430;-78
2024/01/28 07:41:46;;;;;;;7.00;2.30;;;4.00;99.90;;;;;;4158476;28;20048;-78
2024/01/28 07:43:47;;;;;;;7.45;2.33;;;3.90;99.90;;;;;;4159314;28;20033;-78
2024/01/28 07:45:48;;;;;;;6.20;2.42;;;4.00;99.90;;;;;;4158149;28;20112;-76
2024/01/28 07:47:48;;;;;;;9.27;2.30;;;4.00;99.90;;;;;;4158673;28;20395;-78
2024/01/28 07:49:49;;;;;;;5.63;2.17;;;4.00;99.90;;;;;;4158601;28;20473;-78
2024/01/28 07:51:50;;;;;;;5.55;2.08;;;4.00;99.90;;;;;;4158342;28;20057;-78
2024/01/28 07:53:50;;;;;;;6.65;2.17;;;4.00;99.90;;;;;;4157407;28;20407;-78
2024/01/28 07:55:51;;;;;;;7.82;2.55;;;4.00;99.90;;;;;;4153916;28;20501;-78
2024/01/28 07:57:53;;;;;;;4.90;1.95;;;4.10;99.90;;;;;;4157018;28;20090;-77
2024/01/28 07:59:53;;;;;;;5.45;1.90;;;4.10;99.90;;;;;;4149401;28;20180;-78
2024/01/28 08:01:54;;;;;;;5.63;2.20;;;4.30;99.90;;;;;;4134637;28;20546;-77
2024/01/28 08:03:55;;;;;;;4.70;1.77;;;4.60;99.90;;;;;;4157331;28;20380;-78
2024/01/28 08:05:56;;;;;;;7.28;2.25;;;5.00;99.90;;;;;;4158563;28;20032;-73
2024/01/28 08:07:56;;;;;;;10.63;2.65;;;5.30;99.90;;;;;;4157877;28;20522;-73
2024/01/28 08:09:57;;;;;;;7.03;2.45;;;5.50;99.90;;;;;;4156364;28;20487;-73
2024/01/28 08:11:57;;;;;;;6.47;2.13;;;5.80;99.90;;;;;;4157417;28;20037;-73
2024/01/28 08:13:58;;;;;;;7.60;2.17;;;6.10;99.90;;;;;;4159065;28;20630;-72
2024/01/28 08:16:03;;;;;;;5.40;2.00;;;6.30;99.90;;;;;;4155390;28;20112;-75
2024/01/28 08:18:04;;;;;;;4.68;1.60;;;6.60;99.90;;;;;;4152709;28;20033;-77
2024/01/28 08:20:05;;;;;;;6.28;2.22;;;6.90;99.90;;;;;;4139936;28;20052;-76
2024/01/28 08:22:06;;;;;;;5.72;1.98;;;7.10;99.90;;;;;;4157594;28;20395;-77
2024/01/28 08:24:06;;;;;;;4.88;1.90;;;7.30;99.90;;;;;;4158234;28;20045;-78
2024/01/28 08:26:08;;;;;;;6.90;1.90;;;7.60;99.90;;;;;;4158176;28;20545;-73
2024/01/28 08:28:08;;;;;;;4.07;1.52;;;7.80;99.90;;;;;;4158732;28;20021;-74
2024/01/28 08:30:09;;;;;;;4.28;1.70;;;8.10;99.90;;;;;;4155958;28;20036;-73
2024/01/28 08:32:10;;;;;;;4.45;1.83;;;8.30;99.90;;;;;;4157990;28;20060;-73
2024/01/28 08:34:10;;;;;;;6.05;1.85;;;8.40;99.90;;;;;;4155583;28;20045;-73
2024/01/28 08:36:11;;;;;;;6.90;1.98;;;8.70;99.90;;;;;;4137139;28;20029;-73
2024/01/28 08:38:11;;;;;;;3.55;1.75;;;8.70;99.90;;;;;;4158342;28;20037;-73
2024/01/28 08:40:12;;;;;;;6.93;1.95;;;9.10;99.90;;;;;;4157847;28;20534;-74
2024/01/28 08:42:13;;;;;;;5.95;1.90;;;9.30;99.90;;;;;;4157307;28;20033;-74
2024/01/28 08:44:15;;;;;;;7.03;2.05;;;9.50;99.90;;;;;;4140926;28;20446;-74
2024/01/28 08:46:16;;;;;;;3.65;1.63;;;9.70;99.90;;;;;;4157869;28;20056;-73
2024/01/28 08:48:16;;;;;;;6.32;1.92;;;9.80;99.90;;;;;;4158341;28;20042;-73
2024/01/28 08:50:17;;;;;;;4.57;1.98;;;9.90;99.90;;;;;;4157140;28;20025;-73
2024/01/28 08:52:20;;;;;;;4.75;1.77;;;10.00;99.90;;;;;;4160661;28;20117;-75
2024/01/28 08:54:20;;;;;;;9.05;2.20;;;10.10;99.90;;;;;;4161764;28;20491;-73
2024/01/28 08:56:21;;;;;;;6.30;2.00;;;10.30;99.90;;;;;;4156215;28;20033;-73
2024/01/28 08:58:21;;;;;;;4.80;1.65;;;10.40;99.90;;;;;;4161963;28;20033;-74
2024/01/28 09:00:22;;;;;;;7.78;2.30;;;10.60;99.90;;;;;;4160568;28;20056;-74
2024/01/28 09:02:22;;;;;;;4.93;1.67;;;10.70;99.70;;;;;;4161726;28;20035;-73
2024/01/28 09:04:23;;;;;;;4.15;1.80;;;10.70;99.30;;;;;;4159674;28;20474;-73
2024/01/28 09:06:24;;;;;;;4.75;1.67;;;10.70;98.40;;;;;;4159619;28;20395;-74
2024/01/28 09:08:25;;;;;;;4.47;1.98;;;10.80;98.30;;;;;;4161320;28;20033;-74
2024/01/28 09:10:25;;;;;;;3.85;1.80;;;11.00;99.20;;;;;;4160828;28;20041;-73
2024/01/28 09:12:26;;;;;;;4.32;1.85;;;10.80;98.40;;;;;;4161665;28;20061;-73
2024/01/28 09:14:28;;;;;;;3.83;2.00;;;10.80;98.50;;;;;;4159983;28;20025;-74
2024/01/28 09:16:29;;;;;;;5.97;1.80;;;11.00;98.70;;;;;;4138873;28;20038;-74
2024/01/28 09:18:30;;;;;;;6.25;1.75;;;10.90;97.60;;;;;;4157187;28;20095;-74
2024/01/28 09:20:30;;;;;;;6.55;2.05;;;11.00;96.60;;;;;;4160362;28;20037;-75
2024/01/28 09:22:34;;;;;;;4.75;2.08;;;11.00;96.30;;;;;;4160998;28;20115;-75
2024/01/28 09:24:34;;;;;;;4.20;1.80;;;11.00;97.30;;;;;;4161628;28;20112;-75
2024/01/28 09:26:35;;;;;;;4.32;1.92;;;11.00;97.60;;;;;;4160974;28;20027;-75
2024/01/28 09:28:35;;;;;;;3.70;1.63;;;10.90;96.30;;;;;;4159709;28;20026;-74
2024/01/28 09:30:36;;;;;;;3.67;1.75;;;11.00;97.00;;;;;;4159674;28;20482;-74
2024/01/28 09:32:37;;;;;;;4.93;1.90;;;10.90;95.90;;;;;;4160168;28;20037;-74
2024/01/28 09:34:38;;;;;;;3.92;1.77;;;10.90;97.70;;;;;;4159430;28;20044;-75
2024/01/28 09:36:38;;;;;;;6.40;2.03;;;10.90;96.80;;;;;;4139108;28;20037;-78
2024/01/28 09:38:42;;;;;;;6.53;2.00;;;10.70;96.40;;;;;;4161592;28;20601;-78
2024/01/28 09:40:42;;;;;;;5.07;1.95;;;10.60;96.10;;;;;;4160725;28;20057;-79
2024/01/28 09:42:52;;;;;;;5.72;2.13;;;10.70;96.70;;;;;;4161227;28;20509;-79
2024/01/28 09:44:53;;;;;;;5.80;2.40;;;10.70;96.90;;;;;;4153467;28;20041;-79
2024/01/28 09:46:54;;;;;;;4.72;1.83;;;10.70;97.60;;;;;;4155502;28;20133;-78
2024/01/28 09:48:55;;;;;;;5.63;2.20;;;10.50;98.10;;;;;;4159588;28;20113;-77
2024/01/28 09:50:55;;;;;;;7.53;2.28;;;10.60;98.60;;;;;;4160243;28;20704;-77
2024/01/28 09:52:56;;;;;;;5.55;1.90;;;10.40;99.00;;;;;;4160789;28;20085;-78
2024/01/28 09:54:56;;;;;;;4.22;1.92;;;10.40;97.40;;;;;;4160885;28;20399;-78
2024/01/28 09:56:58;;;;;;;4.53;1.98;;;10.40;97.80;;;;;;4143443;28;20026;-78
2024/01/28 09:58:59;;;;;;;6.00;2.30;;;10.20;97.20;;;;;;4143492;28;20026;-78
2024/01/28 10:01:02;;;;;;;6.47;2.40;;;10.10;99.30;;;;;;4160155;28;20041;-79
2024/01/28 10:03:03;;;;;;;5.65;2.25;;;9.90;98.20;;;;;;4142314;28;20092;-76
2024/01/28 10:05:10;;;;;;;4.95;1.80;;;10.00;99.40;;;;;;4142339;28;20034;-77
2024/01/28 10:07:11;;;;;;;4.95;1.92;;;9.90;99.30;;;;;;4126867;28;20018;-78
2024/01/28 10:09:11;;;;;;;4.65;1.67;;;9.80;98.20;;;;;;4159206;28;20137;-78
2024/01/28 10:11:14;;;;;;;5.80;2.20;;;9.80;99.20;;;;;;4159821;28;20041;-77
2024/01/28 10:13:15;;;;;;;;;;;9.70;98.00;;;;;;4161243;28;20064;-78
2024/01/28 10:15:17;;;;;;;4.05;1.77;;;9.60;98.40;;;;;;4159849;28;19912;-78
2024/01/28 10:17:21;;;;;;;7.57;2.05;;;9.70;99.70;;;;;;4159059;28;20029;-78
2024/01/28 10:19:22;;;;;;;12.63;2.67;;;9.60;98.20;;;;;;4156995;28;20125;-78
2024/01/28 10:21:24;;;;;;;5.25;2.15;;;9.50;99.80;;;;;;4159957;28;20391;-78
2024/01/28 10:23:25;;;;;;;6.75;1.73;;;9.50;99.90;;;;;;4142329;28;20500;-78
2024/01/28 10:25:26;;;;;;;5.90;2.00;;;9.50;99.30;;;;;;4159931;28;20029;-72
2024/01/28 10:27:26;;;;;;;5.65;1.98;;;9.50;99.70;;;;;;4160750;28;20033;-73
2024/01/28 10:29:28;;;;;;;7.15;2.15;;;9.50;99.90;;;;;;4160955;28;20096;-73
2024/01/28 10:31:29;;;;;;;5.43;2.25;;;9.50;99.90;;;;;;4159429;28;20057;-73
2024/01/28 10:33:30;;;;;;;8.17;1.80;;;9.50;99.90;;;;;;4160587;28;20120;-74
2024/01/28 10:35:31;;;;;;;3.78;1.92;;;9.50;99.90;;;;;;4159709;28;20172;-73
2024/01/28 10:37:33;;;;;;;4.47;1.75;;;9.50;99.90;;;;;;4160387;28;20434;-75